Time;durP1;ratioP1;P1;durP2;ratioP2;P2;SDS_P1;SDS_P2;PMS_P1;PMS_P2;Temp;Humidity;BMP_temperature;BMP_pressure;BME280_temperature;BME280_humidity;BME280_pressure;Samples;Min_cycle;Max_cycle;Signal;HPM_P1;HPM_P2
2023/09/17 00:00:39;;;;;;;7.80;6.00;;;;;;;15.23;74.29;100867.23;107610;276;115064;-55
2023/09/17 00:03:35;;;;;;;7.90;6.00;;;;;;;15.21;74.23;100867.14;107659;277;93178;-56
2023/09/17 00:06:17;;;;;;;8.00;6.30;;;;;;;15.19;74.43;100864.77;107693;276;96811;-56
2023/09/17 00:08:58;;;;;;;10.10;6.40;;;;;;;15.17;74.42;100860.02;107512;277;121051;-56
2023/09/17 00:11:36;;;;;;;8.20;6.10;;;;;;;15.17;74.58;100857.17;107506;276;104423;-56
2023/09/17 00:14:13;;;;;;;7.90;5.60;;;;;;;15.18;74.71;100851.23;107661;276;113231;-57
2023/09/17 00:16:49;;;;;;;8.10;6.50;;;;;;;15.19;74.75;100847.92;107595;276;95355;-57
2023/09/17 00:19:32;;;;;;;9.40;6.90;;;;;;;15.19;74.84;100845.63;107679;277;98449;-55
2023/09/17 00:22:14;;;;;;;9.00;6.80;;;;;;;15.17;74.88;100841.72;107466;277;121948;-55
2023/09/17 00:24:50;;;;;;;7.20;6.30;;;;;;;15.13;75.20;100835.45;107665;276;104117;-53
2023/09/17 00:27:27;;;;;;;7.50;6.10;;;;;;;15.12;74.85;100835.70;107677;276;113930;-53
2023/09/17 00:29:59;;;;;;;8.20;6.10;;;;;;;15.09;75.12;100830.73;107655;276;96264;-54
2023/09/17 00:32:37;;;;;;;8.30;6.60;;;;;;;15.07;75.08;100826.86;107460;277;97498;-55
2023/09/17 00:35:26;;;;;;;8.70;6.20;;;;;;;15.06;75.24;100821.20;107801;276;121509;-59
2023/09/17 00:38:05;;;;;;;10.30;6.80;;;;;;;15.09;75.35;100817.10;107894;276;104246;-54
2023/09/17 00:40:43;;;;;;;7.60;6.10;;;;;;;15.09;75.24;100814.20;107651;276;114809;-52
2023/09/17 00:43:22;;;;;;;7.80;6.30;;;;;;;15.06;75.45;100812.41;107488;277;93436;-58
2023/09/17 00:45:56;;;;;;;8.40;6.70;;;;;;;15.07;75.48;100817.05;107879;276;96415;-59
2023/09/17 00:48:37;;;;;;;8.70;6.90;;;;;;;15.06;75.45;100808.48;107763;277;118808;-54
2023/09/17 00:51:12;;;;;;;9.50;6.10;;;;;;;15.05;75.52;100810.35;107663;277;104216;-55
2023/09/17 00:53:59;;;;;;;8.90;6.90;;;;;;;15.03;75.43;100811.36;107644;277;113538;-55
2023/09/17 00:56:38;;;;;;;;;;;;;;;15.02;75.64;100816.35;107682;276;96229;-55
2023/09/17 00:59:21;;;;;;;8.40;6.70;;;;;;;14.98;75.89;100813.15;107728;276;97687;-56
2023/09/17 01:01:54;;;;;;;9.70;7.00;;;;;;;14.99;75.92;100810.52;107651;277;121606;-55
2023/09/17 01:04:32;;;;;;;8.60;6.40;;;;;;;14.99;75.84;100805.04;107753;276;105457;-59
2023/09/17 01:07:10;;;;;;;9.20;6.30;;;;;;;14.97;76.22;100801.61;107787;276;112036;-58
2023/09/17 01:09:53;;;;;;;7.00;6.20;;;;;;;14.95;76.01;100799.14;107810;276;96197;-59
2023/09/17 01:12:32;;;;;;;9.30;6.40;;;;;;;14.97;76.28;100800.48;107786;276;97661;-59
2023/09/17 01:15:08;;;;;;;8.40;6.70;;;;;;;14.96;76.15;100799.02;107616;276;119501;-56
2023/09/17 01:17:41;;;;;;;9.90;6.70;;;;;;;14.95;76.00;100800.34;107610;276;104381;-56
2023/09/17 01:20:24;;;;;;;9.60;7.10;;;;;;;14.92;76.06;100795.54;107502;276;114086;-56
2023/09/17 01:23:11;;;;;;;10.00;7.20;;;;;;;14.91;76.08;100787.52;107493;277;98621;-56
2023/09/17 01:26:02;;;;;;;8.20;6.70;;;;;;;14.87;76.22;100784.39;107565;276;96987;-57
2023/09/17 01:28:42;;;;;;;8.00;6.00;;;;;;;14.86;76.16;100779.70;107585;276;121375;-53
2023/09/17 01:31:23;;;;;;;9.70;6.70;;;;;;;14.85;76.16;100775.30;107632;276;104253;-53
2023/09/17 01:34:03;;;;;;;9.20;6.90;;;;;;;14.80;76.52;100777.02;107733;276;113353;-56
2023/09/17 01:36:40;;;;;;;9.50;7.30;;;;;;;14.81;76.62;100773.51;107654;276;95375;-55
2023/09/17 01:39:18;;;;;;;9.60;6.80;;;;;;;14.82;76.66;100772.13;107870;276;96543;-58
2023/09/17 01:42:08;;;;;;;9.00;6.90;;;;;;;14.82;76.63;100768.16;107936;277;119408;-59
2023/09/17 01:44:53;;;;;;;8.70;6.90;;;;;;;14.80;76.71;100765.27;107782;276;105137;-58
2023/09/17 01:47:36;;;;;;;9.40;6.90;;;;;;;14.81;76.66;100764.08;107794;277;112809;-59
2023/09/17 01:50:11;;;;;;;9.00;6.60;;;;;;;14.82;76.86;100760.86;107460;277;98731;-56
2023/09/17 01:52:51;;;;;;;8.80;7.00;;;;;;;14.82;76.70;100766.14;107705;276;98486;-56
2023/09/17 01:55:26;;;;;;;9.10;7.40;;;;;;;14.79;76.81;100761.04;107636;276;120241;-53
2023/09/17 01:58:03;;;;;;;7.70;6.40;;;;;;;14.74;76.83;100763.61;107665;277;105847;-57
2023/09/17 02:00:38;;;;;;;8.00;6.80;;;;;;;14.71;76.86;100762.33;107644;276;113710;-56
2023/09/17 02:03:10;;;;;;;9.00;7.40;;;;;;;14.67;76.97;100766.63;107627;276;98032;-56
2023/09/17 02:05:47;;;;;;;;;;;;;;;14.64;76.84;100761.21;107657;276;95786;-56
2023/09/17 02:08:20;;;;;;;11.40;7.70;;;;;;;14.63;76.86;100760.42;107647;277;120247;-55
2023/09/17 02:10:54;;;;;;;9.40;7.30;;;;;;;14.63;77.08;100756.25;107641;276;104831;-55
2023/09/17 02:13:32;;;;;;;10.20;7.50;;;;;;;14.63;77.13;100754.31;107634;276;115253;-53
2023/09/17 02:16:14;;;;;;;11.10;7.70;;;;;;;14.63;77.17;100754.52;107622;276;96810;-53
2023/09/17 02:18:54;;;;;;;8.90;7.20;;;;;;;14.61;77.21;100755.99;107514;277;96972;-54
2023/09/17 02:21:36;;;;;;;9.00;7.50;;;;;;;14.63;77.25;100758.88;107686;276;121603;-54
2023/09/17 02:24:24;;;;;;;8.80;7.80;;;;;;;14.58;77.40;100754.80;107755;269;104544;-58
2023/09/17 02:27:09;;;;;;;8.90;7.10;;;;;;;14.55;77.27;100756.19;107895;276;113728;-58
2023/09/17 02:29:46;;;;;;;8.90;7.00;;;;;;;14.56;77.22;100759.66;107959;277;94370;-58
2023/09/17 02:32:21;;;;;;;9.60;7.70;;;;;;;14.53;77.45;100759.99;107960;276;98124;-59
2023/09/17 02:35:00;;;;;;;9.60;7.50;;;;;;;14.50;77.41;100762.45;107891;277;118444;-59
2023/09/17 02:37:34;;;;;;;8.70;7.20;;;;;;;14.44;77.46;100760.30;107889;276;105700;-59
2023/09/17 02:40:09;;;;;;;9.20;7.40;;;;;;;14.39;77.71;100764.44;107661;276;114431;-52
2023/09/17 02:42:45;;;;;;;10.40;7.20;;;;;;;14.38;77.66;100762.98;107651;276;95795;-53
2023/09/17 02:45:19;;;;;;;8.70;7.40;;;;;;;14.35;77.74;100758.15;107680;277;96642;-55
2023/09/17 02:47:54;;;;;;;9.50;7.10;;;;;;;14.33;77.85;100759.52;107463;277;121891;-55
2023/09/17 02:50:29;;;;;;;9.30;7.50;;;;;;;14.31;77.85;100759.41;107613;276;105916;-55
2023/09/17 02:53:11;;;;;;;10.70;7.40;;;;;;;14.31;78.01;100763.13;107644;277;114791;-53
2023/09/17 02:55:52;;;;;;;10.90;7.60;;;;;;;14.28;77.99;100763.16;107646;277;96978;-53
2023/09/17 02:58:38;;;;;;;9.10;7.20;;;;;;;14.25;78.03;100771.26;107637;276;97590;-53
2023/09/17 03:01:25;;;;;;;9.40;7.30;;;;;;;14.26;78.14;100775.30;107673;276;121241;-54
2023/09/17 03:04:01;;;;;;;9.70;7.60;;;;;;;14.27;78.16;100777.29;107641;273;104033;-54
2023/09/17 03:06:42;;;;;;;10.00;7.10;;;;;;;14.21;78.14;100773.92;107683;276;114812;-53
2023/09/17 03:09:21;;;;;;;8.80;7.90;;;;;;;14.16;78.09;100771.73;107562;277;93628;-53
2023/09/17 03:12:02;;;;;;;9.60;7.50;;;;;;;14.12;78.11;100773.21;107635;277;96035;-58
2023/09/17 03:14:43;;;;;;;9.50;7.40;;;;;;;14.06;78.11;100773.48;107679;276;120233;-54
2023/09/17 03:17:30;;;;;;;10.70;7.50;;;;;;;14.00;78.30;100774.75;107503;277;104754;-55
2023/09/17 03:20:10;;;;;;;9.30;7.30;;;;;;;13.96;78.44;100772.02;107673;276;112822;-58
2023/09/17 03:22:46;;;;;;;9.80;8.10;;;;;;;13.94;78.39;100772.52;107617;276;95545;-57
2023/09/17 03:25:29;;;;;;;9.80;7.90;;;;;;;13.89;78.58;100771.95;107664;276;97531;-59
2023/09/17 03:28:05;;;;;;;9.70;7.90;;;;;;;13.88;78.58;100775.20;107823;276;121700;-58
2023/09/17 03:30:44;;;;;;;10.40;7.60;;;;;;;13.83;78.69;100774.55;107779;276;105797;-58
2023/09/17 03:33:19;;;;;;;10.80;8.10;;;;;;;13.77;78.78;100771.34;107775;276;115018;-54
2023/09/17 03:35:52;;;;;;;10.30;6.90;;;;;;;13.72;79.06;100770.15;107630;277;95800;-56
2023/09/17 03:38:23;;;;;;;8.80;7.20;;;;;;;13.71;79.12;100768.88;107691;276;98050;-58
2023/09/17 03:40:59;;;;;;;9.30;7.40;;;;;;;13.72;79.08;100768.02;107655;276;118722;-54
2023/09/17 03:43:36;;;;;;;11.20;7.60;;;;;;;13.73;79.08;100769.89;107647;276;103911;-55
2023/09/17 03:46:13;;;;;;;10.40;7.40;;;;;;;13.68;79.25;100774.73;107652;276;114308;-56
2023/09/17 03:48:49;;;;;;;10.80;8.00;;;;;;;13.69;79.50;100775.43;107754;276;96056;-55
2023/09/17 03:51:28;;;;;;;10.30;7.60;;;;;;;13.72;79.37;100773.52;107724;276;96817;-54
2023/09/17 03:54:02;;;;;;;11.50;8.00;;;;;;;13.69;79.44;100772.17;107773;277;119948;-58
2023/09/17 03:56:38;;;;;;;13.20;7.80;;;;;;;13.68;79.54;100761.81;107311;277;523846;-58
2023/09/17 03:59:22;;;;;;;11.70;8.50;;;;;;;13.73;80.01;100760.08;107687;277;114506;-54
2023/09/17 04:02:04;;;;;;;9.90;8.30;;;;;;;13.71;80.12;100761.08;107659;276;96137;-54
2023/09/17 04:04:42;;;;;;;12.30;8.60;;;;;;;13.69;80.05;100757.80;107693;277;98621;-58
2023/09/17 04:07:17;;;;;;;11.80;8.70;;;;;;;13.69;80.15;100755.76;107668;277;120204;-54
2023/09/17 04:09:49;;;;;;;11.80;8.60;;;;;;;13.71;80.33;100751.88;107669;276;103978;-59
2023/09/17 04:12:26;;;;;;;11.80;9.00;;;;;;;13.74;80.13;100752.20;107612;277;113801;-55
2023/09/17 04:15:08;;;;;;;13.20;9.60;;;;;;;13.75;80.46;100749.66;107470;276;96758;-55
2023/09/17 04:17:43;;;;;;;12.40;8.40;;;;;;;13.76;80.30;100753.16;107690;277;98365;-56
2023/09/17 04:20:24;;;;;;;11.80;8.80;;;;;;;13.79;80.50;100755.93;107655;276;121119;-57
2023/09/17 04:23:00;;;;;;;13.50;9.90;;;;;;;13.83;80.56;100753.58;107589;276;105691;-55
2023/09/17 04:25:36;;;;;;;12.30;8.80;;;;;;;13.88;80.53;100747.13;107660;276;114112;-53
2023/09/17 04:28:15;;;;;;;10.60;9.20;;;;;;;13.88;80.64;100745.06;107641;276;95392;-59
2023/09/17 04:30:53;;;;;;;12.20;9.50;;;;;;;13.91;80.61;100740.87;107780;276;97013;-59
2023/09/17 04:33:28;;;;;;;10.70;8.60;;;;;;;13.94;80.57;100743.92;107743;276;120351;-56
2023/09/17 04:36:05;;;;;;;12.90;8.90;;;;;;;13.98;80.57;100740.98;107699;276;105217;-57
2023/09/17 04:38:43;;;;;;;12.30;8.70;;;;;;;14.01;80.94;100735.77;107708;276;114987;-54
2023/09/17 04:41:27;;;;;;;10.50;8.70;;;;;;;13.99;80.78;100742.27;107685;276;96791;-53
2023/09/17 04:44:10;;;;;;;10.90;8.60;;;;;;;14.04;80.74;100744.18;107663;276;98289;-55
2023/09/17 04:46:47;;;;;;;11.80;9.30;;;;;;;14.05;80.94;100743.48;107697;269;121346;-54
2023/09/17 04:49:27;;;;;;;11.90;9.20;;;;;;;14.15;80.90;100745.65;107487;277;104518;-54
2023/09/17 04:52:04;;;;;;;12.70;9.60;;;;;;;14.20;80.66;100753.56;107641;276;114462;-54
2023/09/17 04:54:45;;;;;;;11.40;9.70;;;;;;;14.28;80.66;100752.84;107647;277;96812;-57
2023/09/17 04:57:23;;;;;;;13.00;9.80;;;;;;;14.38;80.70;100761.88;107652;276;96389;-57
2023/09/17 05:00:09;;;;;;;11.30;8.60;;;;;;;14.44;80.46;100766.33;107623;276;120374;-55
2023/09/17 05:02:50;;;;;;;13.30;10.10;;;;;;;14.45;80.63;100761.65;107633;277;105976;-55
2023/09/17 05:05:22;;;;;;;12.10;9.10;;;;;;;14.53;80.53;100763.67;107611;276;114589;-57
2023/09/17 05:07:58;;;;;;;10.90;9.00;;;;;;;14.60;80.41;100763.98;107629;277;96497;-57
2023/09/17 05:10:31;;;;;;;14.70;9.60;;;;;;;14.71;80.27;100769.19;107667;276;96815;-56
2023/09/17 05:13:15;;;;;;;11.50;8.60;;;;;;;15.28;80.47;100773.64;107618;277;120540;-54
2023/09/17 05:15:50;;;;;;;11.10;9.10;;;;;;;16.22;79.67;100774.24;107680;276;105644;-53
2023/09/17 05:18:34;;;;;;;11.20;9.20;;;;;;;16.20;78.99;100770.31;107685;276;115401;-56
2023/09/17 05:21:13;;;;;;;10.40;9.00;;;;;;;16.21;78.45;100769.64;107549;276;96265;-57
2023/09/17 05:23:56;;;;;;;12.30;9.20;;;;;;;16.27;78.13;100765.77;107758;276;97264;-57
2023/09/17 05:26:34;;;;;;;11.30;8.50;;;;;;;16.48;77.75;100767.37;107887;276;119238;-59
2023/09/17 05:29:15;;;;;;;11.20;8.50;;;;;;;16.37;77.36;100765.53;107644;277;105489;-57
2023/09/17 05:31:48;;;;;;;12.30;9.30;;;;;;;16.27;77.36;100768.65;107648;276;114061;-56
2023/09/17 05:34:39;;;;;;;12.30;9.10;;;;;;;16.21;77.29;100780.25;107596;277;97357;-58
2023/09/17 05:37:17;;;;;;;12.50;8.90;;;;;;;16.18;77.36;100782.15;107785;277;97792;-59
2023/09/17 05:39:53;;;;;;;11.40;8.70;;;;;;;16.15;77.28;100787.45;107651;276;121017;-53
2023/09/17 05:42:30;;;;;;;11.80;9.00;;;;;;;16.18;77.41;100790.83;107647;276;105447;-53
2023/09/17 05:45:09;;;;;;;10.70;8.80;;;;;;;16.22;77.31;100785.77;107474;275;115164;-53
2023/09/17 05:47:42;;;;;;;11.80;9.10;;;;;;;17.20;77.51;100779.64;107620;276;92982;-55
2023/09/17 05:50:19;;;;;;;11.00;8.90;;;;;;;18.75;77.32;100776.19;107621;276;98190;-57
2023/09/17 05:52:56;;;;;;;11.00;8.50;;;;;;;19.31;75.68;100776.68;107617;277;120876;-54
2023/09/17 05:55:41;;;;;;;11.50;8.80;;;;;;;19.86;74.33;100779.67;107664;277;106077;-54
2023/09/17 05:58:24;;;;;;;9.80;8.60;;;;;;;20.42;70.85;100779.49;107683;276;114743;-55
2023/09/17 06:01:04;;;;;;;12.70;9.60;;;;;;;20.36;70.60;100774.77;107632;276;93922;-57
2023/09/17 06:03:39;;;;;;;10.50;8.70;;;;;;;20.06;70.11;100773.35;107694;277;96830;-56
2023/09/17 06:06:14;;;;;;;9.90;8.20;;;;;;;19.90;69.94;100776.96;107674;277;120881;-56
2023/09/17 06:08:48;;;;;;;10.00;8.40;;;;;;;19.86;69.44;100776.54;107675;277;106069;-57
2023/09/17 06:11:28;;;;;;;9.50;8.30;;;;;;;19.54;68.60;100772.13;107695;277;114358;-56
2023/09/17 06:14:10;;;;;;;10.00;8.80;;;;;;;19.20;69.12;100771.69;107637;276;93883;-59
2023/09/17 06:16:43;;;;;;;9.70;7.70;;;;;;;19.06;69.17;100764.81;107708;276;96265;-59
2023/09/17 06:19:16;;;;;;;11.10;8.10;;;;;;;19.02;69.44;100764.11;107698;276;119156;-56
2023/09/17 06:21:50;;;;;;;10.10;8.50;;;;;;;18.97;69.44;100763.81;107675;276;105247;-56
2023/09/17 06:24:27;;;;;;;10.20;8.80;;;;;;;18.84;69.35;100768.40;107707;276;113833;-60
2023/09/17 06:26:58;;;;;;;10.80;8.70;;;;;;;18.68;69.43;100771.10;107781;277;93715;-59
2023/09/17 06:29:33;;;;;;;10.70;8.90;;;;;;;18.65;69.51;100771.15;107684;276;97602;-55
2023/09/17 06:32:05;;;;;;;10.20;8.80;;;;;;;18.60;69.57;100770.11;107621;277;119346;-56
2023/09/17 06:34:41;;;;;;;10.30;8.90;;;;;;;18.54;69.77;100771.23;107759;277;104939;-59
2023/09/17 06:37:17;;;;;;;9.70;8.20;;;;;;;18.54;70.00;100774.41;107766;276;113697;-59
2023/09/17 06:39:51;;;;;;;11.20;9.10;;;;;;;18.72;70.02;100771.80;107657;276;95349;-55
2023/09/17 06:42:23;;;;;;;10.90;8.50;;;;;;;18.82;69.97;100771.39;107536;277;99521;-55
2023/09/17 06:44:55;;;;;;;9.10;7.80;;;;;;;18.89;69.93;100769.73;107728;276;118924;-58
2023/09/17 06:47:29;;;;;;;11.10;8.70;;;;;;;18.97;69.87;100768.25;107740;276;103968;-58
2023/09/17 06:50:04;;;;;;;12.10;8.40;;;;;;;19.04;69.80;100769.52;107772;276;113937;-60
2023/09/17 06:52:41;;;;;;;9.60;8.20;;;;;;;18.94;69.61;100772.27;107766;276;93995;-59
2023/09/17 06:55:17;;;;;;;11.30;8.80;;;;;;;18.98;69.71;100769.36;107640;277;98083;-59
2023/09/17 06:57:52;;;;;;;11.20;8.30;;;;;;;19.03;69.61;100773.01;107618;276;120244;-55
2023/09/17 07:00:24;;;;;;;11.70;8.40;;;;;;;19.15;69.60;100777.59;107691;277;104708;-55
2023/09/17 07:03:02;;;;;;;9.80;8.20;;;;;;;19.68;69.51;100772.88;107640;277;113555;-57
2023/09/17 07:05:41;;;;;;;10.60;8.80;;;;;;;20.60;68.95;100762.51;107654;276;94985;-56
2023/09/17 07:08:17;;;;;;;10.00;8.30;;;;;;;20.58;67.91;100762.25;107665;277;98291;-57
2023/09/17 07:10:58;;;;;;;9.60;8.20;;;;;;;20.47;67.59;100760.02;107632;276;119646;-56
2023/09/17 07:13:33;;;;;;;9.10;8.00;;;;;;;20.84;67.77;100758.77;107620;276;104229;-54
2023/09/17 07:16:08;;;;;;;10.30;8.40;;;;;;;21.11;66.99;100755.80;107659;276;113371;-54
2023/09/17 07:18:48;;;;;;;11.80;8.70;;;;;;;20.94;66.60;100759.45;107629;277;94656;-55
2023/09/17 07:21:27;;;;;;;12.00;9.00;;;;;;;20.88;66.42;100757.31;107585;276;98230;-55
2023/09/17 07:24:06;;;;;;;10.10;8.50;;;;;;;20.69;66.12;100754.55;107641;276;120121;-54
2023/09/17 07:26:52;;;;;;;10.50;8.00;;;;;;;20.51;66.35;100755.27;107610;276;103924;-55
2023/09/17 07:29:29;;;;;;;9.70;8.40;;;;;;;20.46;66.32;100756.36;107611;276;115179;-56
2023/09/17 07:32:04;;;;;;;10.90;9.20;;;;;;;20.41;66.43;100759.68;107592;276;94315;-56
2023/09/17 07:34:43;;;;;;;11.30;8.70;;;;;;;20.43;66.57;100753.91;107699;276;98790;-56
2023/09/17 07:37:18;;;;;;;9.70;8.70;;;;;;;20.40;66.37;100762.40;107625;277;119996;-56
2023/09/17 07:40:01;;;;;;;11.00;9.30;;;;;;;20.36;66.17;100764.30;107635;276;104740;-55
2023/09/17 07:42:36;;;;;;;10.00;8.60;;;;;;;20.49;66.38;100761.86;107602;277;114740;-56
2023/09/17 07:45:12;;;;;;;10.20;8.70;;;;;;;20.74;66.74;100761.67;107651;276;93553;-57
2023/09/17 07:47:51;;;;;;;9.70;8.50;;;;;;;21.69;66.49;100757.30;107620;276;97679;-57
2023/09/17 07:50:28;;;;;;;10.20;8.70;;;;;;;23.13;65.78;100756.42;107603;276;120745;-59
2023/09/17 07:53:11;;;;;;;10.00;8.20;;;;;;;25.27;63.76;100749.76;107681;277;104552;-56
2023/09/17 07:55:48;;;;;;;9.30;7.60;;;;;;;27.07;61.25;100746.76;107496;276;115238;-57
2023/09/17 07:58:24;;;;;;;10.20;7.70;;;;;;;28.03;57.55;100749.77;107593;276;92279;-58
2023/09/17 08:00:59;;;;;;;9.00;7.70;;;;;;;29.27;56.21;100738.70;107645;276;97990;-58
2023/09/17 08:03:32;;;;;;;9.00;7.80;;;;;;;30.14;54.21;100735.63;107713;276;120532;-60
2023/09/17 08:06:07;;;;;;;11.20;7.80;;;;;;;30.97;52.63;100730.35;107658;276;104851;-60
2023/09/17 08:08:45;;;;;;;8.60;7.50;;;;;;;31.68;51.15;100728.10;107631;277;113895;-60
2023/09/17 08:11:29;;;;;;;10.00;8.10;;;;;;;32.35;49.39;100730.31;107479;276;94042;-59
2023/09/17 08:14:09;;;;;;;8.80;7.90;;;;;;;32.67;47.85;100726.60;107688;277;98845;-55
2023/09/17 08:16:48;;;;;;;8.90;7.40;;;;;;;32.90;45.38;100726.40;107631;277;120919;-56
2023/09/17 08:19:27;;;;;;;8.70;7.70;;;;;;;32.96;45.36;100733.54;107492;275;105152;-55
2023/09/17 08:22:02;;;;;;;8.10;7.30;;;;;;;33.13;44.43;100730.39;107661;276;114450;-56
2023/09/17 08:24:46;;;;;;;9.10;7.80;;;;;;;32.98;43.25;100734.69;107629;276;94314;-61
2023/09/17 08:27:26;;;;;;;7.70;7.00;;;;;;;32.18;42.33;100738.25;107662;276;98055;-58
2023/09/17 08:30:11;;;;;;;8.70;7.70;;;;;;;31.18;42.68;100739.95;107669;276;120313;-60
2023/09/17 08:32:49;;;;;;;8.00;7.20;;;;;;;30.52;43.25;100736.40;107651;276;105530;-57
2023/09/17 08:35:31;;;;;;;7.60;6.90;;;;;;;30.47;43.97;100740.55;107643;276;114856;-56
2023/09/17 08:38:16;;;;;;;8.00;7.10;;;;;;;31.08;43.77;100734.70;107730;276;93674;-60
2023/09/17 08:40:49;;;;;;;8.10;7.40;;;;;;;31.52;43.14;100731.33;107728;276;96804;-60
2023/09/17 08:43:20;;;;;;;;;;;;;;;31.85;42.98;100730.08;107702;276;121059;-60
2023/09/17 08:45:57;;;;;;;7.80;6.70;;;;;;;32.28;42.83;100728.63;107720;276;104495;-61
2023/09/17 08:48:36;;;;;;;7.00;6.30;;;;;;;32.83;42.37;100727.42;107733;276;113743;-60
2023/09/17 08:51:20;;;;;;;7.70;6.90;;;;;;;33.11;41.57;100730.13;107526;276;95213;-60
2023/09/17 08:54:08;;;;;;;7.30;6.60;;;;;;;33.21;40.61;100729.75;107732;276;98012;-60
2023/09/17 08:56:48;;;;;;;7.10;6.40;;;;;;;33.16;40.03;100727.88;107635;276;120877;-59
2023/09/17 08:59:38;;;;;;;8.00;7.20;;;;;;;32.70;39.08;100730.62;107700;276;105897;-57
2023/09/17 09:02:21;;;;;;;7.80;7.10;;;;;;;31.82;39.68;100728.98;107678;276;114430;-58
2023/09/17 09:05:04;;;;;;;8.70;6.80;;;;;;;30.94;40.41;100729.50;107672;276;94226;-58
2023/09/17 09:07:41;;;;;;;7.40;6.80;;;;;;;30.37;40.92;100727.50;107675;276;98163;-58
2023/09/17 09:10:22;;;;;;;8.00;6.80;;;;;;;29.82;41.55;100722.61;107623;276;120920;-56
2023/09/17 09:12:59;;;;;;;7.40;6.60;;;;;;;29.41;42.24;100723.73;107666;276;105153;-58
2023/09/17 09:15:35;;;;;;;7.30;6.60;;;;;;;29.29;43.09;100725.60;107617;276;114846;-58
2023/09/17 09:18:11;;;;;;;7.90;6.70;;;;;;;29.62;43.10;100723.20;107674;276;94862;-56
2023/09/17 09:20:44;;;;;;;7.30;6.60;;;;;;;29.97;43.33;100723.43;107674;275;97034;-56
2023/09/17 09:23:20;;;;;;;7.00;6.30;;;;;;;30.24;43.17;100722.91;107684;275;118968;-58
2023/09/17 09:26:03;;;;;;;7.20;6.50;;;;;;;30.53;43.22;100723.89;107629;276;104374;-58
2023/09/17 09:28:42;;;;;;;7.00;6.30;;;;;;;30.71;42.69;100723.02;107639;276;114196;-56
2023/09/17 09:31:24;;;;;;;7.50;6.80;;;;;;;30.56;42.48;100719.09;107687;276;95016;-56
2023/09/17 09:33:56;;;;;;;7.70;6.60;;;;;;;30.54;42.76;100721.08;107734;276;97112;-57
2023/09/17 09:36:28;;;;;;;6.80;6.10;;;;;;;30.45;42.88;100719.27;107713;275;120287;-56
2023/09/17 09:39:05;;;;;;;8.50;7.30;;;;;;;30.11;42.93;100720.23;107719;276;103958;-57
2023/09/17 09:41:38;;;;;;;7.20;6.50;;;;;;;29.47;43.24;100721.25;107486;276;114495;-59
2023/09/17 09:44:14;;;;;;;8.00;6.90;;;;;;;29.01;43.92;100723.06;107703;276;94224;-60
2023/09/17 09:47:02;;;;;;;7.90;6.40;;;;;;;28.66;44.04;100730.34;107680;276;96912;-61
2023/09/17 09:49:43;;;;;;;7.90;6.60;;;;;;;28.30;45.05;100725.84;107696;276;119040;-59
2023/09/17 09:52:16;;;;;;;7.10;6.40;;;;;;;28.10;45.52;100725.15;107697;276;105078;-59
2023/09/17 09:54:51;;;;;;;7.40;6.70;;;;;;;27.93;45.60;100725.73;107644;276;114868;-61
2023/09/17 09:57:25;;;;;;;8.10;7.30;;;;;;;27.64;46.00;100727.79;107624;276;92941;-60
2023/09/17 10:00:12;;;;;;;8.10;7.00;;;;;;;27.48;46.34;100726.33;107644;276;97392;-59
2023/09/17 10:02:55;;;;;;;7.60;6.70;;;;;;;27.28;46.82;100725.50;107646;276;120112;-58
2023/09/17 10:05:41;;;;;;;7.60;6.90;;;;;;;27.06;47.59;100726.48;107669;276;105405;-59
2023/09/17 10:08:21;;;;;;;9.80;6.50;;;;;;;26.77;47.61;100720.95;107657;276;114468;-60
2023/09/17 10:10:59;;;;;;;7.50;6.70;;;;;;;26.66;48.27;100719.83;107683;276;94493;-60
2023/09/17 10:13:34;;;;;;;7.40;6.60;;;;;;;26.63;48.97;100721.67;107643;276;96744;-60
2023/09/17 10:16:05;;;;;;;7.20;6.40;;;;;;;26.63;49.28;100714.36;107699;276;120710;-59
2023/09/17 10:18:50;;;;;;;8.10;6.30;;;;;;;26.66;49.49;100720.67;107740;276;104096;-60
2023/09/17 10:21:28;;;;;;;7.00;6.30;;;;;;;26.59;49.51;100719.00;107690;276;113219;-59
2023/09/17 10:24:03;;;;;;;9.20;6.60;;;;;;;26.49;49.68;100721.66;107701;276;93823;-60
2023/09/17 10:26:46;;;;;;;6.80;6.10;;;;;;;26.40;50.10;100717.67;107706;276;97454;-60
2023/09/17 10:29:30;;;;;;;8.10;6.30;;;;;;;26.47;50.22;100723.28;107654;276;121133;-59
2023/09/17 10:32:03;;;;;;;7.90;6.30;;;;;;;26.38;50.21;100718.18;107645;276;105007;-59
2023/09/17 10:34:39;;;;;;;8.50;6.50;;;;;;;26.37;50.63;100716.80;107649;276;113809;-56
2023/09/17 10:37:17;;;;;;;8.10;7.10;;;;;;;26.45;50.79;100720.14;107655;276;93300;-56
2023/09/17 10:39:51;;;;;;;7.70;6.90;;;;;;;26.49;50.93;100724.44;107484;276;99879;-56
2023/09/17 10:42:25;;;;;;;8.00;6.40;;;;;;;26.46;51.06;100721.63;107639;275;122440;-55
2023/09/17 10:45:07;;;;;;;7.20;6.30;;;;;;;26.47;51.10;100723.17;107650;275;105095;-56
2023/09/17 10:47:48;;;;;;;8.00;6.40;;;;;;;26.31;51.03;100723.88;107628;276;114969;-56
2023/09/17 10:50:30;;;;;;;7.70;6.70;;;;;;;26.14;51.24;100720.07;107663;276;94885;-55
2023/09/17 10:53:06;;;;;;;9.40;6.90;;;;;;;26.16;51.41;100715.76;107666;276;97868;-60
2023/09/17 10:55:52;;;;;;;7.10;6.40;;;;;;;26.13;51.58;100715.26;107561;276;122455;-61
2023/09/17 10:58:37;;;;;;;6.90;6.20;;;;;;;25.90;51.57;100720.48;107681;275;105059;-56
2023/09/17 11:01:20;;;;;;;8.00;6.40;;;;;;;25.80;51.91;100716.92;107651;276;114553;-55
2023/09/17 11:03:58;;;;;;;7.10;6.50;;;;;;;25.82;52.00;100719.02;107766;276;94693;-60
2023/09/17 11:06:34;;;;;;;7.80;7.00;;;;;;;25.91;52.11;100719.98;107818;276;96988;-59
2023/09/17 11:09:12;;;;;;;9.20;6.90;;;;;;;25.97;52.24;100720.84;107725;276;119605;-60
2023/09/17 11:11:49;;;;;;;6.50;5.70;;;;;;;25.97;52.25;100717.85;107667;276;105716;-60
2023/09/17 11:14:29;;;;;;;6.30;5.70;;;;;;;26.06;52.35;100712.23;107646;276;114084;-60
2023/09/17 11:17:04;;;;;;;6.70;5.80;;;;;;;26.17;52.55;100709.77;107694;276;94396;-59
2023/09/17 11:19:41;;;;;;;7.10;6.40;;;;;;;26.21;52.56;100712.85;107664;276;98475;-56
2023/09/17 11:22:21;;;;;;;6.90;5.80;;;;;;;26.22;52.40;100711.90;107645;276;119302;-55
2023/09/17 11:24:58;;;;;;;6.80;5.70;;;;;;;26.15;52.75;100716.92;107497;276;107125;-56
2023/09/17 11:27:52;;;;;;;7.00;6.30;;;;;;;26.10;52.66;100711.55;107657;276;114260;-56
2023/09/17 11:30:25;;;;;;;6.00;5.40;;;;;;;25.85;52.55;100713.81;107647;276;94726;-58
2023/09/17 11:33:09;;;;;;;6.90;6.30;;;;;;;25.76;52.84;100708.85;107686;276;97293;-59
2023/09/17 11:35:41;;;;;;;7.50;5.70;;;;;;;25.78;52.77;100708.02;107857;276;120014;-60
2023/09/17 11:38:22;;;;;;;6.50;5.90;;;;;;;25.78;52.77;100705.04;107880;276;105168;-55
2023/09/17 11:41:41;;;;;;;6.70;6.00;;;;;;;25.85;52.68;100705.02;107668;276;113918;-56
2023/09/17 11:44:26;;;;;;;7.20;5.60;;;;;;;25.85;52.83;100706.83;107645;276;94819;-55
2023/09/17 11:47:03;;;;;;;6.10;5.50;;;;;;;25.83;52.81;100707.67;107650;276;97631;-56
2023/09/17 11:49:38;;;;;;;6.70;5.90;;;;;;;25.79;52.67;100708.02;107701;276;119727;-54
2023/09/17 11:52:17;;;;;;;7.50;6.20;;;;;;;25.81;52.97;100705.41;107737;276;103589;-54
2023/09/17 11:55:01;;;;;;;7.60;5.80;;;;;;;25.88;53.11;100706.81;107660;275;113087;-56
2023/09/17 11:57:40;;;;;;;6.10;5.50;;;;;;;25.85;53.00;100699.09;106985;275;779064;-56
2023/09/17 12:00:29;;;;;;;7.80;6.10;;;;;;;25.84;52.87;100696.93;107676;275;98384;-55
2023/09/17 12:03:09;;;;;;;6.60;6.00;;;;;;;25.77;52.99;100702.16;107682;275;120592;-57
2023/09/17 12:05:50;;;;;;;6.90;6.20;;;;;;;25.70;52.80;100702.23;107496;276;104910;-56
2023/09/17 12:08:32;;;;;;;7.40;6.00;;;;;;;25.67;53.07;100700.13;107737;276;115268;-59
2023/09/17 12:11:25;;;;;;;6.70;6.10;;;;;;;25.73;53.14;100700.52;107916;275;94043;-60